Time;durP1;ratioP1;P1;durP2;ratioP2;P2;SDS_P1;SDS_P2;PMS_P1;PMS_P2;Temp;Humidity;BMP_temperature;BMP_pressure;BME280_temperature;BME280_humidity;BME280_pressure;Samples;Min_cycle;Max_cycle;Signal;HPM_P1;HPM_P2
2021/11/25 00:00:23;;;;;;;9.50;6.75;;;6.10;99.90;;;;;;5056087;28;20040;-82
2021/11/25 00:02:49;;;;;;;14.88;7.82;;;6.10;99.90;;;;;;5074434;28;20225;-81
2021/11/25 00:05:15;;;;;;;18.25;9.55;;;6.10;99.90;;;;;;5095042;28;20136;-81
2021/11/25 00:07:41;;;;;;;13.68;7.95;;;6.10;99.90;;;;;;5077398;28;20044;-81
2021/11/25 00:10:08;;;;;;;15.52;8.85;;;6.10;99.90;;;;;;5073821;28;20052;-82
2021/11/25 00:12:35;;;;;;;16.70;8.45;;;6.10;99.90;;;;;;5073157;28;20481;-78
2021/11/25 00:15:00;;;;;;;;;;;6.10;99.90;;;;;;5071851;28;20040;-80
2021/11/25 00:17:26;;;;;;;15.38;7.95;;;6.10;99.90;;;;;;5079371;28;19923;-79
2021/11/25 00:19:51;;;;;;;12.88;6.25;;;6.10;99.90;;;;;;5077142;28;20082;-80
2021/11/25 00:22:17;;;;;;;18.48;8.23;;;6.10;99.90;;;;;;5096134;28;20044;-81
2021/11/25 00:24:43;;;;;;;15.55;8.50;;;6.10;99.90;;;;;;5079899;28;20110;-81
2021/11/25 00:27:09;;;;;;;9.05;5.50;;;6.10;99.90;;;;;;5072553;28;20037;-80
2021/11/25 00:29:35;;;;;;;18.45;8.20;;;6.10;99.90;;;;;;5079548;28;20044;-80
2021/11/25 00:32:01;;;;;;;12.20;7.65;;;6.10;99.90;;;;;;5074437;28;20043;-78
2021/11/25 00:34:26;;;;;;;7.13;5.45;;;6.00;99.90;;;;;;5077428;28;20075;-81
2021/11/25 00:36:52;;;;;;;26.77;6.57;;;6.00;99.90;;;;;;5078382;28;20035;-79
2021/11/25 00:39:18;;;;;;;22.85;10.85;;;6.00;99.90;;;;;;5079347;28;20112;-84
2021/11/25 00:41:46;;;;;;;21.00;8.43;;;6.00;99.90;;;;;;5073670;28;20087;-82
2021/11/25 00:44:12;;;;;;;23.13;10.40;;;5.90;99.90;;;;;;5094564;28;20072;-80
2021/11/25 00:46:38;;;;;;;17.77;8.40;;;5.90;99.90;;;;;;5074371;28;20071;-81
2021/11/25 00:49:04;;;;;;;12.10;7.53;;;5.90;99.90;;;;;;5073575;28;20048;-79
2021/11/25 00:51:30;;;;;;;15.05;7.80;;;5.90;99.90;;;;;;5075267;28;20043;-79
2021/11/25 00:53:56;;;;;;;10.98;8.15;;;5.80;99.90;;;;;;5076951;28;20036;-79
2021/11/25 00:56:21;;;;;;;17.85;6.68;;;5.80;99.90;;;;;;5059202;28;20052;-79
2021/11/25 00:58:47;;;;;;;15.77;9.77;;;5.80;99.90;;;;;;5078096;28;20036;-80
2021/11/25 01:01:13;;;;;;;11.65;6.97;;;5.80;99.90;;;;;;5048405;28;20044;-79
2021/11/25 01:03:39;;;;;;;;;;;5.90;99.90;;;;;;5076342;28;20060;-81
2021/11/25 01:06:05;;;;;;;13.10;8.02;;;5.80;99.90;;;;;;5076633;28;19924;-81
2021/11/25 01:08:30;;;;;;;9.65;5.50;;;5.80;99.90;;;;;;5066340;28;20044;-79
2021/11/25 01:10:56;;;;;;;10.90;7.63;;;5.80;99.90;;;;;;5075037;28;20089;-79
2021/11/25 01:13:22;;;;;;;17.33;10.73;;;5.80;99.90;;;;;;5077129;28;20048;-81
2021/11/25 01:15:48;;;;;;;11.57;8.13;;;5.80;99.90;;;;;;5074984;28;20556;-79
2021/11/25 01:18:16;;;;;;;10.32;6.47;;;5.80;99.90;;;;;;5058161;28;20463;-81
2021/11/25 01:20:45;;;;;;;18.23;8.25;;;5.90;99.90;;;;;;5087787;28;20055;-82
2021/11/25 01:23:14;;;;;;;11.52;8.10;;;5.90;99.90;;;;;;5073670;28;20386;-81
2021/11/25 01:25:41;;;;;;;15.48;7.60;;;5.80;99.90;;;;;;5096670;28;20083;-80
2021/11/25 01:28:12;;;;;;;14.52;8.65;;;5.80;99.90;;;;;;5078078;28;20036;-81
2021/11/25 01:30:44;;;;;;;22.55;10.13;;;5.80;99.90;;;;;;5075458;28;20036;-81
2021/11/25 01:33:10;;;;;;;17.52;8.80;;;5.80;99.90;;;;;;5071554;28;20040;-79
2021/11/25 01:35:36;;;;;;;9.25;6.70;;;5.80;99.90;;;;;;5079695;28;20035;-80
2021/11/25 01:38:03;;;;;;;18.63;9.88;;;5.70;99.90;;;;;;5050927;28;20078;-81
2021/11/25 01:40:30;;;;;;;15.65;9.38;;;;;;;;;;5072143;28;20060;-79
2021/11/25 01:42:56;;;;;;;13.15;8.35;;;;;;;;;;5055224;28;20040;-81
2021/11/25 01:45:25;;;;;;;11.15;7.22;;;;;;;;;;5073661;28;20040;-80
2021/11/25 01:47:51;;;;;;;10.15;6.60;;;;;;;;;;5057048;28;20029;-79
2021/11/25 01:50:19;;;;;;;15.50;8.73;;;5.40;99.90;;;;;;5073558;28;20051;-80
2021/11/25 01:52:46;;;;;;;15.30;8.55;;;5.60;99.90;;;;;;5066256;28;20174;-80
2021/11/25 01:55:13;;;;;;;13.93;7.03;;;5.60;99.90;;;;;;5074521;28;20043;-79
2021/11/25 01:57:39;;;;;;;13.70;9.00;;;5.50;99.90;;;;;;5075355;28;20040;-80
2021/11/25 02:00:15;;;;;;;14.32;7.00;;;5.50;99.90;;;;;;5073770;28;20071;-79
2021/11/25 02:02:42;;;;;;;23.90;10.37;;;;;;;;;;5071940;28;20044;-79
2021/11/25 02:05:08;;;;;;;20.85;7.88;;;;;;;;;;5077181;28;20397;-79
2021/11/25 02:07:34;;;;;;;20.95;8.80;;;;;;;;;;5073742;28;20040;-79
2021/11/25 02:10:01;;;;;;;12.50;8.48;;;;;;;;;;5054044;28;20051;-79
2021/11/25 02:12:26;;;;;;;10.55;5.65;;;5.50;99.90;;;;;;5068300;28;20044;-81
2021/11/25 02:14:52;;;;;;;22.90;11.30;;;5.50;99.90;;;;;;5057988;28;20442;-80
2021/11/25 02:17:19;;;;;;;12.98;8.43;;;5.40;99.90;;;;;;5073368;28;20044;-81
2021/11/25 02:19:48;;;;;;;13.82;8.23;;;5.40;99.90;;;;;;5075201;28;20047;-81
2021/11/25 02:22:14;;;;;;;20.38;9.05;;;5.50;99.90;;;;;;5074653;28;20040;-81
2021/11/25 02:24:40;;;;;;;15.32;7.90;;;5.30;99.90;;;;;;5055067;28;20094;-81
2021/11/25 02:27:06;;;;;;;12.02;7.85;;;5.30;99.90;;;;;;5083859;28;20060;-81
2021/11/25 02:29:31;;;;;;;11.30;9.57;;;5.30;99.90;;;;;;5075013;28;20047;-81
2021/11/25 02:31:57;;;;;;;12.32;7.15;;;5.30;99.90;;;;;;5069880;28;20075;-81
2021/11/25 02:34:23;;;;;;;10.43;6.75;;;5.30;99.90;;;;;;5074167;28;20044;-82
2021/11/25 02:36:49;;;;;;;20.55;9.95;;;5.30;99.90;;;;;;5073557;28;20040;-81
2021/11/25 02:39:15;;;;;;;;;;;5.30;99.90;;;;;;5058709;28;20739;-82
2021/11/25 02:41:41;;;;;;;14.95;4.97;;;5.30;99.90;;;;;;5072996;28;19923;-81
2021/11/25 02:44:07;;;;;;;;;;;5.30;99.90;;;;;;5056974;28;20040;-81
2021/11/25 02:46:33;;;;;;;6.75;5.32;;;5.30;99.90;;;;;;5070408;28;19981;-81
2021/11/25 02:49:02;;;;;;;16.77;9.98;;;5.30;99.90;;;;;;5053417;28;20048;-81
2021/11/25 02:51:32;;;;;;;30.00;13.02;;;5.30;99.90;;;;;;5038651;28;20132;-80
2021/11/25 02:53:59;;;;;;;12.25;7.15;;;5.30;99.90;;;;;;5074175;28;20044;-80
2021/11/25 02:56:27;;;;;;;22.13;7.47;;;5.30;99.90;;;;;;5073974;28;20040;-81
2021/11/25 02:58:55;;;;;;;13.73;9.07;;;5.30;99.90;;;;;;5074062;28;20145;-81
2021/11/25 03:01:25;;;;;;;9.68;6.88;;;5.20;99.90;;;;;;5073225;28;20446;-81
2021/11/25 03:03:51;;;;;;;16.75;8.07;;;5.20;99.90;;;;;;5073998;28;20056;-81
2021/11/25 03:06:17;;;;;;;19.77;9.05;;;5.30;99.90;;;;;;5073630;28;20086;-81
2021/11/25 03:08:44;;;;;;;9.88;5.32;;;5.20;99.90;;;;;;5055222;28;20087;-81
2021/11/25 03:11:13;;;;;;;12.43;8.05;;;5.20;99.90;;;;;;5071843;28;20032;-81
2021/11/25 03:13:43;;;;;;;17.63;7.00;;;5.20;99.90;;;;;;5073908;28;20040;-81
2021/11/25 03:16:10;;;;;;;16.83;8.82;;;5.20;99.90;;;;;;5073548;28;20054;-80
2021/11/25 03:18:37;;;;;;;21.35;11.70;;;5.30;99.90;;;;;;5070228;28;20040;-80
2021/11/25 03:21:04;;;;;;;26.77;8.30;;;5.20;99.90;;;;;;5068390;28;20141;-81
2021/11/25 03:23:32;;;;;;;17.33;10.02;;;5.30;99.90;;;;;;5074322;28;20652;-81
2021/11/25 03:26:02;;;;;;;15.48;8.73;;;5.30;99.90;;;;;;5055847;28;20047;-81
2021/11/25 03:28:28;;;;;;;21.92;9.20;;;5.30;99.90;;;;;;5054198;28;20036;-81
2021/11/25 03:30:54;;;;;;;13.55;7.07;;;5.30;99.90;;;;;;5070961;28;20397;-81
2021/11/25 03:33:23;;;;;;;11.48;8.27;;;5.20;99.90;;;;;;5073566;28;20039;-81
2021/11/25 03:35:48;;;;;;;17.83;5.60;;;5.20;99.90;;;;;;5073888;28;20038;-81
2021/11/25 03:38:15;;;;;;;15.63;9.52;;;5.20;99.90;;;;;;5056987;28;20174;-82
2021/11/25 03:40:41;;;;;;;12.25;6.10;;;5.20;99.90;;;;;;5073925;28;20044;-81
2021/11/25 03:43:06;;;;;;;14.10;7.68;;;5.20;99.90;;;;;;5053138;28;20051;-82
2021/11/25 03:45:32;;;;;;;10.25;8.35;;;5.20;99.90;;;;;;5053422;28;20071;-81
2021/11/25 03:47:58;;;;;;;8.35;7.53;;;5.20;99.90;;;;;;5073411;28;20036;-81
2021/11/25 03:50:24;;;;;;;26.23;10.07;;;5.20;99.90;;;;;;5070359;28;20028;-82
2021/11/25 03:52:50;;;;;;;16.80;7.55;;;5.10;99.90;;;;;;5073997;28;20043;-81
2021/11/25 03:55:18;;;;;;;8.45;6.28;;;5.10;99.90;;;;;;5090049;28;20123;-82
2021/11/25 03:57:45;;;;;;;16.70;8.25;;;5.10;99.90;;;;;;5073332;28;20055;-82
2021/11/25 04:00:13;;;;;;;23.88;9.32;;;5.10;99.90;;;;;;5051465;28;20047;-83
2021/11/25 04:02:43;;;;;;;14.73;8.13;;;5.00;99.90;;;;;;5072336;28;20422;-83
2021/11/25 04:05:10;;;;;;;13.65;9.02;;;5.00;99.90;;;;;;5075570;28;20048;-81
2021/11/25 04:07:36;;;;;;;14.77;9.40;;;5.00;99.90;;;;;;5074284;28;20499;-82
2021/11/25 04:10:03;;;;;;;18.45;9.48;;;4.90;99.90;;;;;;5074963;28;20040;-82
2021/11/25 04:12:29;;;;;;;26.98;10.65;;;4.90;99.90;;;;;;5090875;28;20036;-82
2021/11/25 04:14:55;;;;;;;19.15;7.32;;;4.90;99.90;;;;;;5074499;28;20047;-81
2021/11/25 04:17:22;;;;;;;16.25;9.10;;;4.80;99.90;;;;;;5071516;28;20040;-82
2021/11/25 04:19:48;;;;;;;12.98;8.75;;;4.70;99.90;;;;;;5077084;28;20473;-82
2021/11/25 04:22:14;;;;;;;13.27;7.60;;;4.70;99.90;;;;;;5073534;28;20044;-82
2021/11/25 04:24:40;;;;;;;20.67;6.22;;;4.60;99.90;;;;;;5055433;28;20102;-82
2021/11/25 04:27:06;;;;;;;14.38;7.68;;;4.90;99.90;;;;;;5073079;28;20109;-81
2021/11/25 04:29:33;;;;;;;18.40;10.63;;;4.50;99.90;;;;;;5056982;28;20047;-82
2021/11/25 04:37:26;;;;;;;23.00;11.18;;;4.40;99.90;;;;;;5073140;28;20043;-82
2021/11/25 04:39:52;;;;;;;23.13;6.75;;;4.40;99.90;;;;;;5077085;28;20127;-82
2021/11/25 04:42:18;;;;;;;21.27;8.88;;;4.40;99.90;;;;;;5075550;28;20046;-82
2021/11/25 04:44:45;;;;;;;13.30;9.77;;;4.50;99.90;;;;;;5075463;28;20078;-81
2021/11/25 04:47:11;;;;;;;14.65;6.88;;;4.40;99.90;;;;;;5073027;28;20085;-82
2021/11/25 04:49:37;;;;;;;20.35;8.43;;;4.50;99.90;;;;;;5043844;28;20031;-81
2021/11/25 04:52:04;;;;;;;15.70;7.82;;;4.60;99.90;;;;;;5060405;28;20100;-81
2021/11/25 04:54:29;;;;;;;24.83;8.65;;;4.60;99.90;;;;;;5075698;28;20091;-82
2021/11/25 04:56:55;;;;;;;17.23;5.85;;;4.80;99.90;;;;;;5074945;28;20068;-81
2021/11/25 04:59:21;;;;;;;18.08;8.63;;;4.70;99.90;;;;;;5059880;28;20137;-81
2021/11/25 05:01:48;;;;;;;15.20;9.00;;;4.70;99.90;;;;;;5075885;28;20043;-82
2021/11/25 05:04:14;;;;;;;26.90;8.80;;;4.80;99.90;;;;;;5076170;28;20074;-80
2021/11/25 05:06:40;;;;;;;11.93;6.57;;;4.90;99.90;;;;;;5076354;28;20436;-81
2021/11/25 05:09:05;;;;;;;26.77;11.25;;;4.90;99.90;;;;;;5068317;28;20032;-82
2021/11/25 05:11:31;;;;;;;22.23;10.02;;;4.80;99.90;;;;;;5076473;28;20127;-83
2021/11/25 05:13:57;;;;;;;12.45;8.10;;;4.90;99.90;;;;;;5093244;28;20044;-82
2021/11/25 05:16:22;;;;;;;35.15;11.70;;;5.00;99.90;;;;;;5071970;28;20091;-82
2021/11/25 05:18:48;;;;;;;14.85;10.32;;;4.90;99.90;;;;;;5076273;28;20043;-83
2021/11/25 05:21:14;;;;;;;17.67;8.18;;;4.90;99.90;;;;;;5076181;28;20040;-82
2021/11/25 05:23:39;;;;;;;16.63;8.45;;;4.90;99.90;;;;;;5076523;28;20082;-82
2021/11/25 05:26:06;;;;;;;11.02;6.45;;;5.30;99.90;;;;;;5066346;28;20044;-82
2021/11/25 05:28:32;;;;;;;32.10;12.80;;;5.00;99.90;;;;;;5059307;28;20056;-81
2021/11/25 05:30:58;;;;;;;26.33;13.80;;;5.00;99.90;;;;;;5076303;28;20050;-82
2021/11/25 05:33:23;;;;;;;25.42;13.32;;;5.00;99.90;;;;;;5075512;28;20089;-82
2021/11/25 05:35:49;;;;;;;26.50;8.52;;;5.00;99.90;;;;;;5054267;28;20051;-81
2021/11/25 05:38:15;;;;;;;14.50;6.65;;;5.00;99.90;;;;;;5076277;28;20071;-81
2021/11/25 05:40:43;;;;;;;31.42;12.25;;;5.00;99.90;;;;;;5076112;28;20061;-81
2021/11/25 05:43:09;;;;;;;15.95;10.10;;;5.10;99.90;;;;;;5075439;28;20055;-81
2021/11/25 05:45:35;;;;;;;16.80;11.18;;;5.10;99.90;;;;;;5074726;28;20053;-81
2021/11/25 05:48:01;;;;;;;14.82;10.60;;;5.10;99.90;;;;;;5042282;28;20422;-81
2021/11/25 05:50:27;;;;;;;17.52;10.55;;;5.10;99.90;;;;;;5075145;28;20079;-81
2021/11/25 05:52:56;;;;;;;19.25;12.55;;;5.10;99.90;;;;;;5076284;28;20048;-81
2021/11/25 05:55:25;;;;;;;25.65;9.13;;;5.10;99.90;;;;;;5058570;28;20048;-81
2021/11/25 05:57:51;;;;;;;13.00;7.93;;;5.10;99.90;;;;;;5089623;28;20069;-82
2021/11/25 06:00:17;;;;;;;17.70;7.38;;;5.20;99.90;;;;;;5075477;28;20048;-81
2021/11/25 06:02:45;;;;;;;26.48;12.02;;;5.10;99.90;;;;;;5074979;28;20048;-81
2021/11/25 06:05:15;;;;;;;41.80;18.08;;;5.20;99.90;;;;;;5075617;28;20540;-82
2021/11/25 06:07:45;;;;;;;27.02;15.20;;;5.20;99.90;;;;;;5074693;28;20082;-81
2021/11/25 06:10:11;;;;;;;18.25;8.73;;;5.20;99.90;;;;;;5073831;28;20052;-83
2021/11/25 06:12:37;;;;;;;49.15;16.10;;;5.30;99.90;;;;;;5074918;28;20068;-82
2021/11/25 06:15:05;;;;;;;36.67;12.40;;;5.30;99.90;;;;;;5076004;28;20090;-81
2021/11/25 06:17:30;;;;;;;20.52;10.70;;;5.30;99.90;;;;;;5077244;28;20047;-82
2021/11/25 06:19:56;;;;;;;42.60;17.67;;;5.50;99.90;;;;;;5083180;28;20067;-81
2021/11/25 06:22:23;;;;;;;24.65;12.02;;;5.30;99.90;;;;;;5092927;28;20044;-83
2021/11/25 06:24:50;;;;;;;27.60;12.07;;;5.30;99.90;;;;;;5075353;28;20437;-81
2021/11/25 06:27:15;;;;;;;22.45;10.82;;;5.30;99.90;;;;;;5075392;28;20051;-81
2021/11/25 06:29:41;;;;;;;29.33;14.93;;;5.30;99.90;;;;;;5075471;28;20035;-83
2021/11/25 06:32:07;;;;;;;35.22;15.50;;;5.30;99.90;;;;;;5070669;28;20036;-82
2021/11/25 06:34:33;;;;;;;33.80;16.38;;;5.30;99.90;;;;;;5073826;28;20047;-82
2021/11/25 06:36:59;;;;;;;23.58;11.25;;;5.30;99.90;;;;;;5070174;28;20059;-82
2021/11/25 06:39:25;;;;;;;36.50;13.55;;;5.30;99.90;;;;;;5073471;28;20043;-80
2021/11/25 06:41:50;;;;;;;13.82;6.95;;;5.30;99.90;;;;;;5074915;28;20401;-83
2021/11/25 06:44:16;;;;;;;29.27;10.00;;;5.30;99.90;;;;;;5070865;28;20481;-83
2021/11/25 06:46:42;;;;;;;33.80;15.10;;;5.30;99.90;;;;;;5073993;28;20048;-80
2021/11/25 06:49:07;;;;;;;41.25;11.55;;;5.40;99.90;;;;;;5088686;28;20458;-79
2021/11/25 06:51:33;;;;;;;19.42;9.38;;;5.30;99.90;;;;;;5074013;28;20086;-80
2021/11/25 06:53:59;;;;;;;24.75;12.93;;;5.30;99.90;;;;;;5057835;28;20074;-82
2021/11/25 06:56:25;;;;;;;20.80;9.38;;;5.30;99.90;;;;;;5074155;28;20044;-82
2021/11/25 06:58:52;;;;;;;24.90;12.35;;;5.30;99.90;;;;;;5074618;28;20603;-81
2021/11/25 07:01:19;;;;;;;16.48;9.95;;;5.50;99.90;;;;;;5072465;28;20036;-81
2021/11/25 07:03:45;;;;;;;15.15;9.65;;;5.40;99.90;;;;;;5070567;28;20069;-81
2021/11/25 07:06:11;;;;;;;32.88;12.95;;;5.40;99.90;;;;;;5054182;28;20113;-80
2021/11/25 07:08:36;;;;;;;23.77;10.57;;;5.30;99.90;;;;;;5070510;28;20087;-81
2021/11/25 07:11:02;;;;;;;17.65;11.25;;;5.40;99.90;;;;;;5054072;28;20502;-80
2021/11/25 07:13:28;;;;;;;30.10;14.15;;;5.40;99.90;;;;;;5071958;28;20111;-80
2021/11/25 07:15:55;;;;;;;25.75;13.25;;;5.40;99.90;;;;;;5051351;28;20116;-80
2021/11/25 07:18:21;;;;;;;19.98;9.93;;;5.50;99.90;;;;;;5053342;28;20411;-81
2021/11/25 07:20:46;;;;;;;34.08;12.27;;;5.40;99.90;;;;;;5053175;28;20058;-81
2021/11/25 07:23:12;;;;;;;19.83;10.52;;;5.50;99.90;;;;;;5070145;28;20407;-81
2021/11/25 07:25:38;;;;;;;19.10;10.38;;;5.50;99.90;;;;;;5052761;28;20048;-81
2021/11/25 07:28:04;;;;;;;33.55;15.25;;;5.50;99.90;;;;;;5046976;28;20082;-81
2021/11/25 07:30:29;;;;;;;31.23;11.38;;;5.50;99.90;;;;;;5050440;28;20521;-81
2021/11/25 07:32:55;;;;;;;19.95;11.60;;;5.50;99.90;;;;;;5052948;28;20044;-82
2021/11/25 07:35:23;;;;;;;25.33;12.57;;;5.50;99.90;;;;;;5053669;28;20139;-80
2021/11/25 07:37:52;;;;;;;35.60;12.50;;;5.50;99.90;;;;;;5032927;28;20072;-81
2021/11/25 07:40:19;;;;;;;34.30;11.00;;;5.50;99.90;;;;;;5049868;28;20520;-81
2021/11/25 07:42:44;;;;;;;22.58;7.55;;;5.60;99.90;;;;;;5052940;28;20123;-81
2021/11/25 07:45:11;;;;;;;31.95;12.23;;;5.70;99.90;;;;;;5037530;28;20399;-82
2021/11/25 07:47:37;;;;;;;;;;;5.60;99.90;;;;;;5037944;28;20032;-81
2021/11/25 07:50:05;;;;;;;29.88;14.98;;;5.60;99.90;;;;;;5053259;28;19925;-81
2021/11/25 07:52:30;;;;;;;14.77;10.82;;;5.70;99.90;;;;;;5035388;28;20089;-80
2021/11/25 07:54:56;;;;;;;25.80;11.15;;;5.70;99.90;;;;;;5054224;28;20040;-81
2021/11/25 07:57:22;;;;;;;24.52;7.65;;;5.70;99.90;;;;;;5047409;28;20389;-80
2021/11/25 07:59:48;;;;;;;23.77;13.38;;;5.70;99.90;;;;;;5058749;28;20147;-81
2021/11/25 08:02:16;;;;;;;24.83;9.55;;;5.70;99.90;;;;;;5048764;28;20044;-82
2021/11/25 08:04:43;;;;;;;16.33;9.73;;;5.70;99.90;;;;;;5048337;28;20151;-82
2021/11/25 08:07:09;;;;;;;24.38;7.90;;;5.70;99.90;;;;;;5072599;28;20061;-82
2021/11/25 08:09:34;;;;;;;24.83;12.23;;;5.80;99.90;;;;;;5072403;28;20094;-81
2021/11/25 08:12:00;;;;;;;15.77;10.93;;;5.80;99.90;;;;;;5058052;28;20045;-81
2021/11/25 08:14:26;;;;;;;18.02;10.40;;;5.70;99.90;;;;;;5053198;28;20037;-80
2021/11/25 08:16:57;;;;;;;25.23;11.57;;;5.80;99.90;;;;;;5054398;28;20087;-81
2021/11/25 08:19:23;;;;;;;29.85;11.38;;;5.80;99.90;;;;;;5074466;28;20509;-79
2021/11/25 08:21:49;;;;;;;26.60;11.13;;;5.80;99.90;;;;;;5073902;28;20063;-80
2021/11/25 08:24:14;;;;;;;14.27;8.68;;;5.80;99.90;;;;;;5073886;28;20461;-81
2021/11/25 08:26:40;;;;;;;15.23;10.50;;;5.80;99.90;;;;;;5073849;28;20373;-81
2021/11/25 08:29:06;;;;;;;28.17;13.48;;;5.90;99.90;;;;;;5071284;28;20041;-82
2021/11/25 08:31:32;;;;;;;31.83;11.23;;;5.90;99.90;;;;;;5054166;28;20398;-81
2021/11/25 08:33:57;;;;;;;14.73;7.15;;;5.90;99.90;;;;;;5071977;28;20033;-83
2021/11/25 08:36:23;;;;;;;33.53;12.45;;;6.00;99.90;;;;;;5076853;28;20131;-82
2021/11/25 08:38:49;;;;;;;23.88;13.05;;;6.00;99.90;;;;;;5079378;28;20067;-82
2021/11/25 08:41:16;;;;;;;17.27;12.35;;;6.00;99.90;;;;;;5074925;28;20493;-84
2021/11/25 08:43:42;;;;;;;14.63;9.32;;;6.00;99.90;;;;;;5057150;28;20119;-84
2021/11/25 08:46:08;;;;;;;20.23;8.07;;;6.10;99.90;;;;;;5070515;28;20589;-82
2021/11/25 08:48:33;;;;;;;39.63;17.30;;;6.10;99.90;;;;;;5052350;28;20048;-82
2021/11/25 08:50:59;;;;;;;26.30;11.15;;;6.10;99.90;;;;;;5069498;28;20055;-83
2021/11/25 08:53:26;;;;;;;;;;;6.10;99.90;;;;;;5071837;28;20048;-83
2021/11/25 08:55:52;;;;;;;16.65;9.88;;;6.10;99.90;;;;;;5057115;28;19923;-82
2021/11/25 08:58:18;;;;;;;13.88;9.82;;;6.10;99.90;;;;;;5065057;28;20062;-81
2021/11/25 09:00:44;;;;;;;12.93;9.70;;;6.10;99.90;;;;;;5070727;28;20533;-83
2021/11/25 09:03:10;;;;;;;21.90;9.32;;;6.10;99.90;;;;;;5072759;28;20044;-82
2021/11/25 09:05:35;;;;;;;11.75;8.45;;;6.10;99.90;;;;;;5045084;28;20437;-84
2021/11/25 09:08:01;;;;;;;13.55;7.43;;;6.10;99.90;;;;;;5056757;28;20029;-81
2021/11/25 09:10:27;;;;;;;12.35;6.53;;;6.10;99.90;;;;;;5043113;28;20090;-84
2021/11/25 09:12:53;;;;;;;14.07;8.13;;;6.20;99.90;;;;;;5055604;28;20036;-83
2021/11/25 09:15:20;;;;;;;9.98;6.35;;;6.20;99.90;;;;;;5053017;28;20037;-80
2021/11/25 09:17:46;;;;;;;15.48;9.73;;;6.20;99.90;;;;;;5054438;28;20052;-81
2021/11/25 09:20:12;;;;;;;14.48;8.82;;;6.30;99.90;;;;;;5057302;28;20044;-80
2021/11/25 09:22:38;;;;;;;15.07;9.00;;;6.30;99.90;;;;;;5073724;28;20363;-78
2021/11/25 09:25:06;;;;;;;7.25;6.43;;;6.40;99.90;;;;;;5028475;28;20059;-81
2021/11/25 09:27:32;;;;;;;24.92;9.95;;;6.40;99.90;;;;;;5040390;28;20111;-81
2021/11/25 09:29:59;;;;;;;12.95;8.75;;;6.50;99.90;;;;;;5056741;28;20045;-80
2021/11/25 09:32:26;;;;;;;12.18;9.32;;;6.50;99.90;;;;;;5055821;28;20044;-77
2021/11/25 09:34:53;;;;;;;23.75;10.48;;;6.60;99.90;;;;;;5072780;28;20056;-81
2021/11/25 09:37:19;;;;;;;29.10;11.00;;;6.60;99.90;;;;;;5057732;28;20040;-78
2021/11/25 09:39:45;;;;;;;18.88;9.52;;;6.70;99.90;;;;;;5057296;28;20044;-81
2021/11/25 09:42:15;;;;;;;14.50;6.28;;;6.70;99.90;;;;;;5060634;28;20050;-81
2021/11/25 09:44:41;;;;;;;32.30;9.13;;;6.80;99.90;;;;;;5040195;28;20083;-80
2021/11/25 09:47:08;;;;;;;22.67;9.27;;;6.80;99.90;;;;;;5057103;28;20382;-81
2021/11/25 09:49:34;;;;;;;20.92;10.20;;;6.80;99.90;;;;;;5060001;28;20044;-78
2021/11/25 09:51:59;;;;;;;19.85;13.10;;;6.80;99.90;;;;;;5052443;28;20474;-81
2021/11/25 09:54:26;;;;;;;8.18;6.70;;;6.80;99.90;;;;;;5056255;28;20461;-80
2021/11/25 09:56:52;;;;;;;17.13;7.45;;;6.80;99.90;;;;;;5055540;28;20155;-81
2021/11/25 09:59:18;;;;;;;;;;;6.80;99.90;;;;;;5055770;28;20075;-79
2021/11/25 10:01:44;;;;;;;26.60;12.30;;;6.80;99.90;;;;;;5053635;28;19964;-78
2021/11/25 10:04:10;;;;;;;19.35;8.63;;;6.80;99.90;;;;;;5058354;28;20049;-82
2021/11/25 10:06:49;;;;;;;16.30;7.10;;;6.90;99.90;;;;;;5064654;28;20041;-78
2021/11/25 10:09:15;;;;;;;16.00;9.82;;;6.90;99.90;;;;;;5069584;28;20032;-79
2021/11/25 10:11:40;;;;;;;9.70;6.90;;;7.00;99.90;;;;;;5071134;28;20044;-79
2021/11/25 10:14:08;;;;;;;20.67;8.38;;;7.00;99.90;;;;;;5078806;28;20048;-84
2021/11/25 10:16:38;;;;;;;11.98;6.75;;;7.10;99.90;;;;;;5087326;28;20064;-82
2021/11/25 10:19:12;;;;;;;21.48;7.25;;;7.20;99.90;;;;;;5072950;28;20040;-83
2021/11/25 10:21:44;;;;;;;17.50;6.30;;;7.40;99.90;;;;;;5052655;28;20075;-85
2021/11/25 10:24:10;;;;;;;9.45;6.25;;;7.50;99.90;;;;;;5047370;28;20048;-83
2021/11/25 10:26:36;;;;;;;;;;;7.50;99.90;;;;;;5082182;28;20032;-85
2021/11/25 10:29:10;;;;;;;7.00;5.22;;;7.50;99.90;;;;;;5053240;28;20034;-83
2021/11/25 10:31:39;;;;;;;16.42;6.00;;;7.60;99.90;;;;;;5063382;28;20447;-85
2021/11/25 10:34:10;;;;;;;15.77;7.28;;;7.70;99.90;;;;;;5055174;28;20049;-85
2021/11/25 10:42:33;;;;;;;11.85;4.45;;;8.00;99.90;;;;;;5075028;28;20471;-84
2021/11/25 10:44:59;;;;;;;11.35;4.22;;;8.10;99.90;;;;;;5077204;28;20051;-83
2021/11/25 10:47:28;;;;;;;3.47;2.42;;;8.10;99.90;;;;;;5073199;28;20394;-83
2021/11/25 10:50:00;;;;;;;6.10;3.63;;;8.20;99.90;;;;;;5068951;28;20105;-82
2021/11/25 10:52:39;;;;;;;6.32;2.30;;;8.20;99.90;;;;;;5054980;28;20036;-83
2021/11/25 10:55:10;;;;;;;5.38;2.15;;;8.30;99.90;;;;;;5064340;28;20078;-82
2021/11/25 10:57:45;;;;;;;2.67;2.03;;;8.30;99.90;;;;;;5081812;28;20052;-84
2021/11/25 11:00:23;;;;;;;2.90;1.67;;;8.40;99.90;;;;;;5073964;28;20123;-83
2021/11/25 11:03:07;;;;;;;2.70;1.52;;;8.40;99.90;;;;;;5072026;28;20044;-83
2021/11/25 11:05:59;;;;;;;3.95;1.98;;;8.50;99.90;;;;;;5066162;28;20052;-82
2021/11/25 11:08:44;;;;;;;0.90;0.90;;;8.50;99.90;;;;;;5065739;28;20576;-80
2021/11/25 11:11:11;;;;;;;1.75;0.90;;;8.50;99.90;;;;;;5081683;28;20040;-80
2021/11/25 11:13:51;;;;;;;1.23;1.13;;;8.50;99.90;;;;;;5051629;28;20036;-80
2021/11/25 11:21:40;;;;;;;2.53;1.20;;;8.30;99.90;;;;;;5072287;28;20452;-79
2021/11/25 11:24:07;;;;;;;0.70;0.70;;;8.20;99.90;;;;;;5088351;28;20152;-80
2021/11/25 11:26:35;;;;;;;2.70;1.23;;;8.10;99.90;;;;;;5071398;28;20076;-79
2021/11/25 11:29:01;;;;;;;0.75;0.75;;;8.10;99.90;;;;;;5070686;28;20044;-78
2021/11/25 11:31:27;;;;;;;;;;;8.10;99.90;;;;;;5043176;28;20049;-80
2021/11/25 11:33:53;;;;;;;0.60;0.60;;;8.20;99.90;;;;;;5053444;28;19924;-79
2021/11/25 11:36:21;;;;;;;6.53;0.88;;;8.20;99.90;;;;;;5071973;28;20432;-79
2021/11/25 11:38:49;;;;;;;0.80;0.80;;;8.10;99.90;;;;;;5068187;28;20498;-77
2021/11/25 11:41:16;;;;;;;0.65;0.65;;;8.00;99.90;;;;;;5064971;28;20397;-82
2021/11/25 11:43:42;;;;;;;0.70;0.70;;;7.90;99.90;;;;;;5069747;28;20113;-82
2021/11/25 11:46:08;;;;;;;1.70;0.90;;;7.80;99.90;;;;;;5072486;28;20118;-82
2021/11/25 11:48:34;;;;;;;1.42;1.13;;;7.80;99.90;;;;;;5072360;28;20450;-80
2021/11/25 11:51:11;;;;;;;0.90;0.90;;;7.80;99.90;;;;;;5057744;28;20046;-80
2021/11/25 11:53:40;;;;;;;0.70;0.70;;;8.00;99.90;;;;;;5067213;28;20036;-82
2021/11/25 11:56:08;;;;;;;0.60;0.60;;;8.10;99.90;;;;;;5076605;28;20052;-82
2021/11/25 11:58:36;;;;;;;1.58;1.13;;;8.20;99.90;;;;;;5068111;28;20048;-82
2021/11/25 12:01:14;;;;;;;0.60;0.60;;;8.50;99.90;;;;;;5069336;28;20079;-83
2021/11/25 12:03:46;;;;;;;0.88;0.85;;;8.70;99.90;;;;;;5089836;28;20049;-83
2021/11/25 12:06:40;;;;;;;0.65;0.65;;;8.70;99.90;;;;;;5072206;28;20052;-84
2021/11/25 12:09:14;;;;;;;0.50;0.50;;;8.50;99.90;;;;;;5073125;28;20055;-85
2021/11/25 12:11:46;;;;;;;0.70;0.70;;;8.10;99.90;;;;;;5085198;28;20123;-84
2021/11/25 12:14:22;;;;;;;4.57;0.73;;;7.80;99.90;;;;;;5060584;28;20044;-83
2021/11/25 12:17:08;;;;;;;1.75;0.90;;;7.50;99.90;;;;;;5066217;28;20051;-83
2021/11/25 12:19:43;;;;;;;0.57;0.57;;;7.30;99.90;;;;;;5069725;28;20053;-83
2021/11/25 12:22:12;;;;;;;0.60;0.60;;;7.10;99.90;;;;;;5070361;28;20150;-81
2021/11/25 12:24:49;;;;;;;1.35;1.25;;;7.40;99.90;;;;;;5076185;28;20427;-82
2021/11/25 12:27:28;;;;;;;1.75;1.10;;;7.10;99.90;;;;;;5068575;28;20064;-81
2021/11/25 12:30:03;;;;;;;5.82;0.80;;;7.10;99.90;;;;;;5070096;28;20047;-80
2021/11/25 12:32:56;;;;;;;1.95;1.00;;;7.30;99.90;;;;;;5062506;28;20068;-81
2021/11/25 12:35:39;;;;;;;0.60;0.60;;;7.40;99.90;;;;;;5074539;28;20146;-81
2021/11/25 12:38:14;;;;;;;1.23;0.77;;;7.50;99.90;;;;;;5048720;28;20037;-79
2021/11/25 12:41:01;;;;;;;0.70;0.70;;;7.60;99.90;;;;;;5063334;28;20037;-80
2021/11/25 12:43:28;;;;;;;;;;;7.70;99.90;;;;;;5065629;28;20028;-81
2021/11/25 12:46:04;;;;;;;0.52;0.52;;;7.80;99.90;;;;;;5070106;28;20278;-83
2021/11/25 12:48:36;;;;;;;0.55;0.55;;;7.90;99.90;;;;;;5067217;28;20044;-82
2021/11/25 12:51:04;;;;;;;4.38;0.88;;;8.00;99.90;;;;;;5044100;28;20529;-82
2021/11/25 12:53:38;;;;;;;2.08;1.10;;;8.10;99.90;;;;;;5056033;28;20074;-81
2021/11/25 12:56:18;;;;;;;2.00;1.80;;;8.20;99.90;;;;;;5064619;28;20052;-84
2021/11/25 12:58:52;;;;;;;1.02;1.02;;;8.20;99.90;;;;;;5074566;28;20051;-83
2021/11/25 13:01:34;;;;;;;3.50;1.02;;;8.20;99.90;;;;;;5078254;28;20048;-81
2021/11/25 13:04:16;;;;;;;0.85;0.85;;;8.20;99.90;;;;;;5084275;28;20390;-81
2021/11/25 13:07:03;;;;;;;1.17;0.52;;;8.20;99.90;;;;;;5079262;28;20394;-80
2021/11/25 13:09:35;;;;;;;2.15;0.80;;;8.20;99.90;;;;;;5076230;28;20048;-81